createdAt,value
2019-06-26T00:01:09.745Z,5.00
2019-06-26T00:03:40.768Z,5.00
2019-06-26T00:06:10.535Z,5.10
2019-06-26T00:08:42.076Z,5.10
2019-06-26T00:11:12.046Z,5.20
2019-06-26T00:13:41.835Z,5.40
2019-06-26T00:16:11.464Z,5.40
2019-06-26T00:18:41.143Z,5.40
2019-06-26T00:21:12.951Z,5.40
2019-06-26T00:23:43.832Z,5.40
2019-06-26T00:26:13.629Z,5.30
2019-06-26T00:28:43.695Z,5.30
2019-06-26T00:31:13.780Z,5.30
2019-06-26T00:33:43.499Z,5.20
2019-06-26T00:36:13.212Z,5.40
2019-06-26T00:38:42.948Z,5.50
2019-06-26T00:41:12.694Z,5.50
2019-06-26T00:43:44.311Z,5.30
2019-06-26T00:46:13.977Z,5.50
2019-06-26T00:48:45.527Z,5.50
2019-06-26T00:51:15.914Z,5.60
2019-06-26T00:53:47.518Z,5.70
2019-06-26T00:56:17.713Z,5.90
2019-06-26T00:58:49.022Z,5.90
2019-06-26T01:01:22.338Z,5.80
2019-06-26T01:03:53.285Z,6.00
2019-06-26T01:06:44.876Z,6.50
2019-06-26T01:09:15.602Z,6.00
2019-06-26T01:11:47.211Z,5.90
2019-06-26T01:14:17.670Z,6.00
2019-06-26T01:16:47.507Z,5.90
2019-06-26T01:19:18.677Z,6.00
2019-06-26T01:21:48.293Z,6.20
2019-06-26T01:24:17.992Z,6.20
2019-06-26T01:26:47.993Z,6.30
2019-06-26T01:29:18.075Z,6.60
2019-06-26T01:31:47.654Z,6.70
2019-06-26T01:34:17.490Z,6.80
2019-06-26T01:36:49.812Z,6.80
2019-06-26T01:39:19.485Z,6.90
2019-06-26T01:41:49.223Z,6.80
2019-06-26T01:44:19.118Z,6.90
2019-06-26T01:46:50.649Z,7.40
2019-06-26T01:49:21.063Z,7.10
2019-06-26T01:51:51.135Z,7.50
2019-06-26T01:54:21.104Z,7.40
2019-06-26T01:56:52.665Z,7.80
2019-06-26T01:59:23.476Z,8.00
2019-06-26T02:01:55.007Z,7.90
2019-06-26T02:04:24.946Z,7.80
2019-06-26T02:06:54.924Z,7.90
2019-06-26T02:09:24.936Z,7.90
2019-06-26T02:11:56.445Z,7.90
2019-06-26T02:14:31.465Z,7.80
2019-06-26T02:16:58.715Z,7.90
2019-06-26T02:19:28.676Z,7.80
2019-06-26T02:21:58.345Z,7.80
2019-06-26T02:24:28.375Z,8.20
2019-06-26T02:26:58.708Z,8.60
2019-06-26T02:29:28.380Z,9.10
2019-06-26T02:31:58.338Z,9.20
2019-06-26T02:34:28.104Z,9.40
2019-06-26T02:36:58.190Z,9.60
2019-06-26T02:39:29.695Z,10.20
2019-06-26T02:41:59.301Z,10.40
2019-06-26T02:44:51.510Z,10.60
2019-06-26T02:47:18.748Z,10.90
2019-06-26T02:49:35.063Z,11.40
2019-06-26T02:52:04.751Z,11.50
2019-06-26T02:54:35.124Z,11.70
2019-06-26T02:57:05.837Z,11.90
2019-06-26T02:59:35.571Z,12.20
2019-06-26T03:02:05.232Z,12.40
2019-06-26T03:04:36.423Z,12.60
2019-06-26T03:07:08.059Z,12.60
2019-06-26T03:09:37.972Z,12.70
2019-06-26T03:12:08.438Z,12.80
2019-06-26T03:14:39.324Z,12.80
2019-06-26T03:17:09.037Z,13.20
2019-06-26T03:19:39.752Z,13.60
2019-06-26T03:22:09.796Z,13.70
2019-06-26T03:24:39.829Z,14.10
2019-06-26T03:27:10.288Z,14.10
2019-06-26T03:29:39.988Z,14.10
2019-06-26T03:32:12.868Z,14.30
2019-06-26T03:34:45.440Z,14.80
2019-06-26T03:37:15.465Z,14.80
2019-06-26T03:39:46.700Z,14.90
2019-06-26T03:42:16.336Z,15.10
2019-06-26T03:44:46.457Z,15.40
2019-06-26T03:47:18.091Z,15.60
2019-06-26T03:49:49.419Z,16.30
2019-06-26T03:52:19.201Z,15.90
2019-06-26T03:54:49.658Z,15.90
2019-06-26T03:57:21.673Z,16.10
2019-06-26T03:59:53.382Z,16.40
2019-06-26T04:02:23.274Z,16.60
2019-06-26T04:04:52.980Z,16.50
2019-06-26T04:07:22.802Z,16.90
2019-06-26T04:09:52.485Z,16.80
2019-06-26T04:12:22.325Z,17.10
2019-06-26T04:14:52.686Z,16.70
2019-06-26T04:17:24.132Z,16.80
2019-06-26T04:19:55.420Z,17.30
2019-06-26T04:22:26.673Z,17.30
2019-06-26T04:24:56.344Z,17.40
2019-06-26T04:27:26.744Z,17.30
2019-06-26T04:29:56.461Z,17.40
2019-06-26T04:32:26.162Z,17.40
2019-06-26T04:34:56.907Z,17.40
2019-06-26T04:37:26.932Z,17.40
2019-06-26T04:39:56.892Z,17.40
2019-06-26T04:42:26.785Z,17.30
2019-06-26T04:44:56.760Z,17.30
2019-06-26T04:47:26.831Z,17.10
2019-06-26T04:49:59.231Z,17.40
2019-06-26T04:52:29.577Z,18.10
2019-06-26T04:54:59.176Z,17.70
2019-06-26T04:57:30.411Z,17.70
2019-06-26T05:00:03.553Z,17.50
2019-06-26T05:02:33.256Z,17.70
2019-06-26T05:05:05.168Z,17.30
2019-06-26T05:07:35.246Z,17.30
2019-06-26T05:10:05.696Z,17.30
2019-06-26T05:12:36.326Z,17.40
2019-06-26T05:15:07.267Z,17.40
2019-06-26T05:17:37.028Z,17.50
2019-06-26T05:20:08.227Z,17.50
2019-06-26T05:22:38.523Z,17.10
2019-06-26T05:25:08.939Z,17.10
2019-06-26T05:27:40.304Z,17.10
2019-06-26T05:30:11.080Z,17.10
2019-06-26T05:32:41.149Z,16.80
2019-06-26T05:35:12.229Z,16.40
2019-06-26T05:37:43.577Z,16.20
2019-06-26T05:40:15.105Z,16.80
2019-06-26T05:42:46.460Z,16.80
2019-06-26T05:45:16.766Z,17.20
2019-06-26T05:47:46.293Z,17.40
2019-06-26T05:50:16.697Z,17.40
2019-06-26T05:52:46.598Z,17.50
2019-06-26T05:55:17.640Z,17.50
2019-06-26T05:57:48.626Z,17.50
2019-06-26T06:00:20.727Z,17.00
2019-06-26T06:02:53.729Z,16.80
2019-06-26T06:05:21.715Z,16.90
2019-06-26T06:07:51.622Z,17.00
2019-06-26T06:10:21.368Z,17.00
2019-06-26T06:12:51.656Z,17.00
2019-06-26T06:15:21.442Z,17.30
2019-06-26T06:17:51.333Z,17.60
2019-06-26T06:20:28.114Z,17.50
2019-06-26T06:22:57.708Z,17.00
2019-06-26T06:25:27.576Z,16.50
2019-06-26T06:27:57.103Z,16.40
2019-06-26T06:30:29.270Z,16.30
2019-06-26T06:32:59.255Z,16.10
2019-06-26T06:35:28.860Z,15.70
2019-06-26T06:37:58.735Z,15.70
2019-06-26T06:40:30.210Z,16.80
2019-06-26T06:43:01.678Z,17.20
2019-06-26T06:45:32.260Z,17.80
2019-06-26T06:48:03.572Z,17.80
2019-06-26T06:50:33.365Z,16.70
2019-06-26T06:53:03.289Z,16.50
2019-06-26T06:55:34.088Z,16.10
2019-06-26T06:58:03.700Z,15.90
2019-06-26T07:00:33.278Z,16.00
2019-06-26T07:03:02.951Z,15.80
2019-06-26T07:05:34.386Z,14.50
2019-06-26T07:08:03.937Z,14.90
2019-06-26T07:10:33.904Z,13.90
2019-06-26T07:13:04.541Z,13.30
2019-06-26T07:15:34.246Z,14.10
2019-06-26T07:18:04.086Z,14.10
2019-06-26T07:20:34.297Z,13.60
2019-06-26T07:23:03.856Z,14.00
2019-06-26T07:25:35.255Z,13.80
2019-06-26T07:28:05.197Z,13.70
2019-06-26T07:30:35.775Z,14.20
2019-06-26T07:33:05.791Z,14.10
2019-06-26T07:35:35.540Z,12.90
2019-06-26T07:38:06.141Z,13.50
2019-06-26T07:40:35.708Z,13.80
2019-06-26T07:43:05.587Z,14.00
2019-06-26T07:45:36.319Z,14.20
2019-06-26T07:48:06.007Z,14.20
2019-06-26T07:50:38.352Z,14.70
2019-06-26T07:53:09.601Z,14.90
2019-06-26T07:55:40.572Z,13.90
2019-06-26T07:58:10.817Z,13.00
2019-06-26T08:00:40.523Z,12.70
2019-06-26T08:03:10.094Z,12.30
2019-06-26T08:05:42.808Z,11.90
2019-06-26T08:08:14.479Z,11.40
2019-06-26T08:10:44.307Z,11.60
2019-06-26T08:13:14.305Z,10.90
2019-06-26T08:15:47.695Z,10.70
2019-06-26T08:18:18.315Z,11.10
2019-06-26T08:21:07.305Z,11.40
2019-06-26T08:23:20.007Z,10.70
2019-06-26T08:25:50.137Z,11.10
2019-06-26T08:28:20.163Z,11.00
2019-06-26T08:30:51.969Z,9.40
2019-06-26T08:33:23.846Z,9.40
2019-06-26T08:35:53.984Z,9.50
2019-06-26T08:38:23.691Z,10.20
2019-06-26T08:40:54.268Z,9.60
2019-06-26T08:43:24.623Z,9.50
2019-06-26T08:45:57.815Z,9.50
2019-06-26T08:48:38.826Z,9.50
2019-06-26T08:50:59.244Z,9.60
2019-06-26T08:53:29.619Z,10.00
2019-06-26T08:56:00.270Z,9.50
2019-06-26T08:58:30.537Z,9.50
2019-06-26T09:01:00.410Z,10.00
2019-06-26T09:03:30.142Z,10.00
2019-06-26T09:06:00.046Z,9.80
2019-06-26T09:08:31.557Z,9.60
2019-06-26T09:11:01.734Z,9.80
2019-06-26T09:13:31.448Z,9.80
2019-06-26T09:16:01.582Z,9.60
2019-06-26T09:18:35.901Z,9.60
2019-06-26T09:21:03.997Z,9.70
2019-06-26T09:23:33.780Z,9.80
2019-06-26T09:26:03.820Z,9.70
2019-06-26T09:28:33.819Z,9.80
2019-06-26T09:31:03.623Z,9.70
2019-06-26T09:33:33.244Z,9.80
2019-06-26T09:36:06.859Z,8.40
2019-06-26T09:38:35.818Z,8.30
2019-06-26T09:41:05.557Z,8.00
2019-06-26T09:43:35.232Z,8.40
2019-06-26T09:46:05.029Z,8.00
2019-06-26T09:48:51.178Z,8.30
2019-06-26T09:51:05.937Z,7.20
2019-06-26T09:53:47.027Z,6.40
2019-06-26T09:56:10.262Z,6.50
2019-06-26T09:58:39.847Z,6.40
2019-06-26T10:01:09.910Z,6.20
2019-06-26T10:03:39.791Z,5.80
2019-06-26T10:06:09.661Z,6.40
2019-06-26T10:08:39.374Z,6.50
2019-06-26T10:11:09.916Z,6.80
2019-06-26T10:13:42.714Z,6.30
2019-06-26T10:16:12.146Z,5.80
2019-06-26T10:18:42.173Z,6.70
2019-06-26T10:21:11.747Z,6.40
2019-06-26T10:23:42.060Z,5.70
2019-06-26T10:26:11.584Z,5.50
2019-06-26T10:28:41.795Z,3.80
2019-06-26T10:31:13.470Z,4.20
2019-06-26T10:33:43.555Z,4.00
2019-06-26T10:36:13.559Z,3.30
2019-06-26T10:38:43.390Z,1.70
2019-06-26T10:41:13.560Z,1.90
2019-06-26T10:43:43.559Z,1.70
2019-06-26T10:46:13.825Z,1.00
2019-06-26T10:48:45.319Z,1.00
2019-06-26T10:51:15.048Z,1.00
2019-06-26T10:53:45.033Z,1.00
2019-06-26T10:56:16.417Z,1.00
2019-06-26T10:58:46.229Z,1.00
2019-06-26T11:01:17.264Z,1.00
2019-06-26T11:03:48.704Z,1.00
2019-06-26T11:06:18.364Z,1.00
2019-06-26T11:08:48.071Z,1.00
2019-06-26T11:11:18.018Z,1.00
2019-06-26T11:13:48.145Z,1.00
2019-06-26T11:16:18.789Z,1.00
2019-06-26T11:18:48.993Z,1.00
2019-06-26T11:21:19.171Z,1.00
2019-06-26T11:23:49.965Z,1.00
2019-06-26T11:26:20.042Z,1.00
2019-06-26T11:28:50.230Z,1.00
2019-06-26T11:31:20.390Z,1.00
2019-06-26T11:33:51.702Z,1.00
2019-06-26T11:36:21.705Z,1.00
2019-06-26T11:38:51.600Z,1.00
2019-06-26T11:41:21.695Z,1.00
2019-06-26T11:43:53.520Z,1.00
2019-06-26T11:46:23.442Z,1.00
2019-06-26T11:48:53.955Z,1.00
2019-06-26T11:51:24.045Z,1.00
2019-06-26T11:53:58.858Z,1.00
2019-06-26T11:56:26.102Z,1.00
2019-06-26T11:58:56.110Z,1.00
2019-06-26T12:01:26.100Z,1.00
2019-06-26T12:03:56.581Z,1.00
2019-06-26T12:06:26.462Z,1.00
2019-06-26T12:08:56.074Z,1.00
2019-06-26T12:11:25.815Z,1.00
2019-06-26T12:13:55.846Z,1.00
2019-06-26T12:16:26.169Z,1.00
2019-06-26T12:18:56.107Z,1.00
2019-06-26T12:21:26.116Z,1.00
2019-06-26T12:23:55.881Z,1.00
2019-06-26T12:26:26.852Z,1.00
2019-06-26T12:28:57.761Z,1.00
2019-06-26T12:31:28.405Z,1.00
2019-06-26T12:33:58.697Z,1.00
2019-06-26T12:36:28.867Z,1.00
2019-06-26T12:38:58.777Z,1.00
2019-06-26T12:41:28.918Z,1.00
2019-06-26T12:43:58.659Z,1.00
2019-06-26T12:46:28.595Z,1.00
2019-06-26T12:49:00.177Z,1.00
2019-06-26T12:51:30.022Z,1.00
2019-06-26T12:53:59.772Z,1.00
2019-06-26T12:56:30.799Z,1.00
2019-06-26T12:59:02.185Z,1.00
2019-06-26T13:01:31.929Z,1.00
2019-06-26T13:04:01.944Z,1.00
2019-06-26T13:06:31.937Z,1.00
2019-06-26T13:09:01.866Z,1.00
2019-06-26T13:11:33.040Z,1.00
2019-06-26T13:14:03.401Z,1.00
2019-06-26T13:16:34.355Z,1.00
2019-06-26T13:19:06.190Z,1.00
2019-06-26T13:21:35.870Z,1.00
2019-06-26T13:24:06.828Z,1.00
2019-06-26T13:26:38.473Z,1.00
2019-06-26T13:29:09.998Z,1.00
2019-06-26T13:31:40.366Z,1.00
2019-06-26T13:34:12.645Z,1.00
2019-06-26T13:36:43.518Z,1.00
2019-06-26T13:39:15.077Z,1.00
2019-06-26T13:41:47.169Z,1.00
2019-06-26T13:44:16.906Z,1.00
2019-06-26T13:46:48.225Z,1.00
2019-06-26T13:49:18.070Z,1.00
2019-06-26T13:51:47.686Z,1.00
2019-06-26T13:54:19.698Z,1.00
2019-06-26T13:56:51.175Z,1.00
2019-06-26T13:59:21.313Z,1.00
2019-06-26T14:01:51.284Z,1.00
2019-06-26T14:04:22.076Z,1.00
2019-06-26T14:06:52.301Z,1.00
2019-06-26T14:09:23.338Z,1.00
2019-06-26T14:11:53.339Z,1.00
2019-06-26T14:14:37.662Z,1.00
2019-06-26T14:16:57.395Z,1.00
2019-06-26T14:19:28.174Z,1.00
2019-06-26T14:21:57.873Z,1.00
2019-06-26T14:24:29.581Z,1.00
2019-06-26T14:26:59.265Z,1.00
2019-06-26T14:29:29.017Z,1.00
2019-06-26T14:31:58.612Z,1.00
2019-06-26T14:34:28.601Z,1.00
2019-06-26T14:37:00.689Z,1.00
2019-06-26T14:39:33.282Z,1.00
2019-06-26T14:42:03.420Z,1.00
2019-06-26T14:44:33.111Z,1.00
2019-06-26T14:47:04.839Z,1.00
2019-06-26T14:49:36.269Z,1.00
2019-06-26T14:52:06.104Z,1.00
2019-06-26T14:54:35.741Z,1.00
2019-06-26T14:57:05.649Z,1.00
2019-06-26T14:59:35.723Z,1.00
2019-06-26T15:02:05.537Z,1.00
2019-06-26T15:04:37.449Z,1.00
2019-06-26T15:07:08.875Z,1.00
2019-06-26T15:09:39.765Z,1.00
2019-06-26T15:12:10.457Z,1.00
2019-06-26T15:14:41.490Z,1.00
2019-06-26T15:17:12.989Z,1.00
2019-06-26T15:19:42.777Z,1.00
2019-06-26T15:22:14.521Z,1.00
2019-06-26T15:24:47.239Z,1.00
2019-06-26T15:27:17.859Z,1.00
2019-06-26T15:29:47.974Z,1.00
2019-06-26T15:32:19.280Z,1.00
2019-06-26T15:34:49.369Z,1.00
2019-06-26T15:37:21.038Z,1.00
2019-06-26T15:39:51.076Z,1.00
2019-06-26T15:42:22.765Z,1.00
2019-06-26T15:44:52.564Z,1.00
2019-06-26T15:47:23.740Z,1.00
2019-06-26T15:49:55.232Z,1.00
2019-06-26T15:52:25.213Z,1.00
2019-06-26T15:54:55.355Z,1.00
2019-06-26T15:57:25.218Z,1.00
2019-06-26T15:59:54.970Z,1.00
2019-06-26T16:02:28.633Z,1.00
2019-06-26T16:04:58.232Z,1.00
2019-06-26T16:07:27.962Z,1.00
2019-06-26T16:09:59.227Z,1.00
2019-06-26T16:12:29.497Z,1.00
2019-06-26T16:14:59.299Z,1.00
2019-06-26T16:17:35.968Z,1.00
2019-06-26T16:20:07.457Z,1.00
2019-06-26T16:22:37.937Z,1.00
2019-06-26T16:25:08.760Z,1.00
2019-06-26T16:27:39.510Z,1.00
2019-06-26T16:30:09.641Z,1.00
2019-06-26T16:32:39.681Z,1.00
2019-06-26T16:35:12.359Z,1.00
2019-06-26T16:37:46.828Z,1.00
2019-06-26T16:40:16.452Z,1.00
2019-06-26T16:42:46.232Z,1.00
2019-06-26T16:45:17.388Z,1.00
2019-06-26T16:47:47.753Z,1.00
2019-06-26T16:50:18.762Z,1.00
2019-06-26T16:52:50.623Z,1.00
2019-06-26T16:55:21.457Z,1.00
2019-06-26T16:57:51.885Z,1.00
2019-06-26T17:00:22.142Z,1.00
2019-06-26T17:02:53.149Z,1.00
2019-06-26T17:05:22.824Z,1.00
2019-06-26T17:07:52.999Z,1.00
2019-06-26T17:10:24.747Z,1.00
2019-06-26T17:12:55.275Z,1.00
2019-06-26T17:15:25.643Z,1.00
2019-06-26T17:17:57.016Z,1.00
2019-06-26T17:20:28.024Z,1.00
2019-06-26T17:23:05.657Z,1.00
2019-06-26T17:25:32.857Z,1.00
2019-06-26T17:28:10.461Z,1.00
2019-06-26T17:30:45.671Z,1.00
2019-06-26T17:33:15.825Z,1.00
2019-06-26T17:35:47.256Z,1.00
2019-06-26T17:38:18.944Z,1.00
2019-06-26T17:40:50.521Z,1.00
2019-06-26T17:43:20.965Z,1.00
2019-06-26T17:45:51.049Z,1.00
2019-06-26T17:48:21.158Z,1.00
2019-06-26T17:50:51.635Z,1.00
2019-06-26T17:53:23.072Z,1.00
2019-06-26T17:55:54.489Z,1.00
2019-06-26T17:58:25.610Z,1.00
2019-06-26T18:00:56.519Z,1.00
2019-06-26T18:03:30.344Z,1.00
2019-06-26T18:06:02.214Z,1.00
2019-06-26T18:08:32.545Z,1.00
2019-06-26T18:11:03.806Z,1.00
2019-06-26T18:13:33.947Z,1.00
2019-06-26T18:16:04.010Z,1.00
2019-06-26T18:18:33.565Z,1.00
2019-06-26T18:21:03.400Z,1.00
2019-06-26T18:23:37.823Z,1.00
2019-06-26T18:26:13.177Z,1.00
2019-06-26T18:28:36.187Z,1.00
2019-06-26T18:31:08.366Z,1.00
2019-06-26T18:33:38.387Z,1.00
2019-06-26T18:36:08.146Z,1.00
2019-06-26T18:38:38.081Z,1.00
2019-06-26T18:41:07.969Z,1.00
2019-06-26T18:43:37.947Z,1.00
2019-06-26T18:46:07.862Z,1.00
2019-06-26T18:48:38.798Z,1.50
2019-06-26T18:51:11.648Z,1.70
2019-06-26T18:53:53.065Z,1.90
2019-06-26T18:56:14.372Z,2.00
2019-06-26T18:58:44.538Z,2.30
2019-06-26T19:01:16.390Z,2.50
2019-06-26T19:03:46.473Z,2.60
2019-06-26T19:06:28.556Z,2.70
2019-06-26T19:09:00.062Z,3.00
2019-06-26T19:11:30.150Z,3.10
2019-06-26T19:14:01.778Z,3.50
2019-06-26T19:16:36.301Z,3.60
2019-06-26T19:19:06.536Z,4.10
2019-06-26T19:21:37.152Z,4.50
2019-06-26T19:24:10.416Z,4.70
2019-06-26T19:26:38.441Z,4.80
2019-06-26T19:29:09.669Z,5.30
2019-06-26T19:31:40.365Z,5.50
2019-06-26T19:34:14.778Z,5.40
2019-06-26T19:36:49.960Z,5.70
2019-06-26T19:39:20.771Z,5.60
2019-06-26T19:41:50.549Z,5.90
2019-06-26T19:44:21.907Z,6.10
2019-06-26T19:46:52.518Z,6.10
2019-06-26T19:49:22.269Z,6.80
2019-06-26T19:51:53.586Z,6.30
2019-06-26T19:54:27.755Z,6.80
2019-06-26T19:56:56.010Z,6.90
2019-06-26T19:59:25.624Z,6.80
2019-06-26T20:01:57.316Z,6.70
2019-06-26T20:04:28.594Z,6.70
2019-06-26T20:06:58.767Z,6.70
2019-06-26T20:09:28.763Z,7.00
2019-06-26T20:11:58.574Z,6.80
2019-06-26T20:14:31.053Z,7.00
2019-06-26T20:17:01.544Z,6.80
2019-06-26T20:19:32.181Z,7.40
2019-06-26T20:22:03.396Z,7.40
2019-06-26T20:24:43.325Z,7.40
2019-06-26T20:27:06.780Z,7.30
2019-06-26T20:29:36.580Z,7.80
2019-06-26T20:32:06.593Z,8.00
2019-06-26T20:34:36.630Z,7.80
2019-06-26T20:37:06.843Z,7.80
2019-06-26T20:39:37.474Z,7.70
2019-06-26T20:42:07.975Z,8.00
2019-06-26T20:44:37.650Z,7.90
2019-06-26T20:47:10.950Z,7.80
2019-06-26T20:49:52.643Z,7.90
2019-06-26T20:52:12.997Z,7.90
2019-06-26T20:54:56.816Z,7.70
2019-06-26T20:57:14.355Z,7.90
2019-06-26T20:59:48.053Z,7.80
2019-06-26T21:02:18.659Z,7.60
2019-06-26T21:04:48.732Z,7.50
2019-06-26T21:07:19.236Z,7.70
2019-06-26T21:09:48.967Z,7.80
2019-06-26T21:12:19.084Z,8.00
2019-06-26T21:14:49.793Z,8.20
2019-06-26T21:17:19.502Z,8.40
2019-06-26T21:19:49.969Z,8.80
2019-06-26T21:22:19.600Z,9.20
2019-06-26T21:24:49.476Z,9.70
2019-06-26T21:27:21.164Z,10.40
2019-06-26T21:29:52.512Z,9.80
2019-06-26T21:32:22.572Z,10.10
2019-06-26T21:34:52.839Z,10.10
2019-06-26T21:37:22.936Z,10.50
2019-06-26T21:39:54.114Z,10.60
2019-06-26T21:42:24.572Z,10.90
2019-06-26T21:44:55.173Z,11.40
2019-06-26T21:47:26.136Z,12.10
2019-06-26T21:49:57.304Z,12.50
2019-06-26T21:52:27.587Z,12.80
2019-06-26T21:54:57.720Z,13.10
2019-06-26T21:57:27.722Z,13.10
2019-06-26T22:00:00.415Z,13.60
2019-06-26T22:02:30.444Z,13.90
2019-06-26T22:05:02.163Z,13.70
2019-06-26T22:07:32.867Z,14.00
2019-06-26T22:10:03.112Z,14.50
2019-06-26T22:12:35.191Z,14.60
2019-06-26T22:15:05.052Z,14.60
2019-06-26T22:17:34.748Z,15.80
2019-06-26T22:20:09.790Z,15.00
2019-06-26T22:22:38.296Z,15.20
2019-06-26T22:25:08.796Z,16.20
2019-06-26T22:27:40.361Z,16.00
2019-06-26T22:30:10.025Z,16.00
2019-06-26T22:32:41.693Z,16.40
2019-06-26T22:35:11.548Z,16.30
2019-06-26T22:37:41.563Z,16.30
2019-06-26T22:40:12.266Z,16.70
2019-06-26T22:42:43.700Z,16.80
2019-06-26T22:45:14.600Z,16.50
2019-06-26T22:47:44.679Z,16.60
2019-06-26T22:50:15.782Z,16.80
2019-06-26T22:52:46.118Z,17.10
2019-06-26T22:55:18.927Z,17.20
2019-06-26T22:57:48.556Z,17.40
2019-06-26T23:00:21.020Z,17.50
2019-06-26T23:02:50.551Z,17.90
2019-06-26T23:05:21.762Z,18.20
2019-06-26T23:07:51.813Z,18.10
2019-06-26T23:10:21.643Z,18.60
2019-06-26T23:12:52.654Z,18.20
2019-06-26T23:15:22.628Z,18.30
2019-06-26T23:17:53.896Z,18.50
2019-06-26T23:20:24.403Z,18.20
2019-06-26T23:22:54.172Z,18.00
2019-06-26T23:25:24.138Z,18.00
2019-06-26T23:27:53.905Z,17.20
2019-06-26T23:30:25.903Z,17.30
2019-06-26T23:32:56.041Z,17.10
2019-06-26T23:35:26.532Z,17.30
2019-06-26T23:37:56.419Z,17.40
2019-06-26T23:40:26.100Z,18.10
2019-06-26T23:42:57.783Z,18.20
2019-06-26T23:45:27.818Z,18.90
2019-06-26T23:48:00.920Z,19.70
2019-06-26T23:50:31.021Z,19.30
2019-06-26T23:53:04.803Z,19.10
2019-06-26T23:55:34.871Z,19.00
2019-06-26T23:58:04.437Z,19.20
